Time;durP1;ratioP1;P1;durP2;ratioP2;P2;SDS_P1;SDS_P2;PMS_P1;PMS_P2;Temp;Humidity;BMP_temperature;BMP_pressure;BME280_temperature;BME280_humidity;BME280_pressure;Samples;Min_cycle;Max_cycle;Signal;HPM_P1;HPM_P2
2024/03/01 00:00:20;;;;;;;230.35;68.20;;;;;;;;;;4989137;28;20416;-45
2024/03/01 00:02:46;;;;;;;235.38;72.63;;;;;;;;;;4986650;28;20232;-45
2024/03/01 00:05:12;;;;;;;240.00;75.97;;;;;;;;;;4985505;28;20219;-45
2024/03/01 00:07:37;;;;;;;232.97;69.47;;;;;;;;;;4991918;28;20427;-45
2024/03/01 00:10:04;;;;;;;230.67;67.13;;;;;;;;;;4990478;28;20424;-45
2024/03/01 00:12:30;;;;;;;230.75;67.93;;;;;;;;;;4989314;28;20468;-45
2024/03/01 00:14:56;;;;;;;233.00;68.07;;;;;;;;;;4990726;28;20177;-46
2024/03/01 00:17:22;;;;;;;230.27;66.90;;;;;;;;;;4986967;28;20889;-44
2024/03/01 00:19:48;;;;;;;229.95;67.07;;;;;;;;;;4984965;28;20415;-44
2024/03/01 00:22:14;;;;;;;233.50;68.80;;;;;;;;;;4991216;28;20200;-45
2024/03/01 00:24:42;;;;;;;233.20;70.47;;;;;;;;;;4989709;28;20416;-45
2024/03/01 00:27:08;;;;;;;233.75;69.50;;;;;;;;;;4985743;28;20498;-45
2024/03/01 00:29:34;;;;;;;229.43;66.07;;;;;;;;;;4987371;28;20236;-45
2024/03/01 00:32:01;;;;;;;230.68;66.85;;;;;;;;;;4989682;28;20476;-44
2024/03/01 00:34:27;;;;;;;233.02;68.00;;;;;;;;;;4987350;28;20239;-44
2024/03/01 00:36:53;;;;;;;232.97;69.07;;;;;;;;;;4990797;28;20181;-45
2024/03/01 00:39:19;;;;;;;232.60;68.63;;;;;;;;;;4990347;28;20415;-44
2024/03/01 00:41:45;;;;;;;230.10;67.57;;;;;;;;;;4988191;28;20212;-45
2024/03/01 00:44:11;;;;;;;230.23;67.27;;;;;;;;;;4985444;28;20412;-44
2024/03/01 00:46:37;;;;;;;233.33;69.80;;;;;;;;;;4984886;28;20519;-45
2024/03/01 00:49:03;;;;;;;230.77;67.37;;;;;;;;;;4991156;28;20420;-45
2024/03/01 00:51:29;;;;;;;232.93;69.00;;;;;;;;;;4990822;28;20818;-45
2024/03/01 00:53:55;;;;;;;232.33;67.90;;;;;;;;;;4990012;28;20830;-45
2024/03/01 00:56:21;;;;;;;231.20;67.20;;;;;;;;;;4988144;28;20817;-45
2024/03/01 00:58:47;;;;;;;230.80;68.85;;;;;;;;;;4985854;28;20422;-45
2024/03/01 01:01:13;;;;;;;233.60;69.27;;;;;;;;;;4984827;28;20189;-45
2024/03/01 01:03:39;;;;;;;233.43;69.90;;;;;;;;;;4990856;28;20910;-45
2024/03/01 01:06:05;;;;;;;231.37;68.07;;;;;;;;;;4974600;28;20203;-44
2024/03/01 01:08:31;;;;;;;233.87;70.27;;;;;;;;;;4988704;28;20523;-45
2024/03/01 01:10:57;;;;;;;232.15;68.80;;;;;;;;;;4990300;28;20521;-45
2024/03/01 01:13:23;;;;;;;231.60;68.10;;;;;;;;;;4986189;28;20659;-45
2024/03/01 01:15:49;;;;;;;233.05;70.45;;;;;;;;;;4983881;28;20408;-45
2024/03/01 01:18:16;;;;;;;231.30;68.80;;;;;;;;;;4990879;28;20186;-45
2024/03/01 01:20:43;;;;;;;231.40;67.32;;;;;;;;;;4989119;28;20782;-45
2024/03/01 01:23:09;;;;;;;230.70;67.95;;;;;;;;;;4987864;28;20198;-45
2024/03/01 01:25:35;;;;;;;229.13;66.37;;;;;;;;;;4986192;28;20189;-45
2024/03/01 01:28:01;;;;;;;231.47;67.30;;;;;;;;;;4982680;28;20506;-45
2024/03/01 01:30:27;;;;;;;232.93;69.30;;;;;;;;;;4986182;28;20427;-45
2024/03/01 01:32:53;;;;;;;232.20;68.63;;;;;;;;;;4989890;28;20467;-45
2024/03/01 01:35:19;;;;;;;232.20;67.90;;;;;;;;;;4980837;28;20415;-45
2024/03/01 01:37:45;;;;;;;231.37;68.80;;;;;;;;;;4987099;28;20416;-45
2024/03/01 01:40:12;;;;;;;228.87;64.73;;;;;;;;;;4986033;28;20916;-45
2024/03/01 01:42:39;;;;;;;232.73;68.57;;;;;;;;;;4983972;28;20532;-45
2024/03/01 01:45:06;;;;;;;234.32;71.45;;;;;;;;;;4975441;28;20188;-45
2024/03/01 01:47:33;;;;;;;233.43;68.93;;;;;;;;;;4989780;28;20204;-45
2024/03/01 01:49:59;;;;;;;233.07;68.93;;;;;;;;;;4989631;28;20610;-45
2024/03/01 01:52:26;;;;;;;231.57;68.38;;;;;;;;;;4987294;28;20270;-44
2024/03/01 01:54:53;;;;;;;232.80;66.95;;;;;;;;;;4985221;28;20557;-45
2024/03/01 01:57:19;;;;;;;233.95;70.00;;;;;;;;;;4983841;28;20177;-45
2024/03/01 01:59:46;;;;;;;230.70;67.05;;;;;;;;;;4989715;28;20190;-44
2024/03/01 02:02:12;;;;;;;229.80;66.25;;;;;;;;;;4988969;28;20688;-45
2024/03/01 02:04:40;;;;;;;234.15;70.78;;;;;;;;;;4986707;28;20189;-45
2024/03/01 02:07:06;;;;;;;228.27;65.10;;;;;;;;;;4973061;28;20553;-45
2024/03/01 02:09:32;;;;;;;229.10;66.32;;;;;;;;;;4986459;28;20711;-45
2024/03/01 02:11:58;;;;;;;230.85;66.93;;;;;;;;;;4983326;28;20256;-45
2024/03/01 02:14:24;;;;;;;231.17;68.57;;;;;;;;;;4990387;28;20251;-45
2024/03/01 02:16:50;;;;;;;232.90;67.90;;;;;;;;;;4987965;28;20939;-45
2024/03/01 02:19:18;;;;;;;231.93;67.50;;;;;;;;;;4987357;28;20850;-45
2024/03/01 02:21:48;;;;;;;231.50;66.78;;;;;;;;;;4985070;28;20212;-45
2024/03/01 02:24:14;;;;;;;231.13;65.95;;;;;;;;;;4986988;28;20182;-45
2024/03/01 02:26:40;;;;;;;231.45;65.20;;;;;;;;;;4980564;28;20178;-45
2024/03/01 02:29:06;;;;;;;229.53;66.47;;;;;;;;;;4990232;28;20184;-45
2024/03/01 02:31:32;;;;;;;231.00;66.53;;;;;;;;;;4988993;28;20557;-45
2024/03/01 02:33:58;;;;;;;230.13;65.78;;;;;;;;;;4986746;28;20412;-45
2024/03/01 02:36:24;;;;;;;228.57;63.47;;;;;;;;;;4985483;28;20173;-45
2024/03/01 02:38:50;;;;;;;233.68;69.78;;;;;;;;;;4983215;28;20496;-45
2024/03/01 02:41:16;;;;;;;230.95;66.40;;;;;;;;;;4985213;28;20264;-45
2024/03/01 02:43:42;;;;;;;231.47;68.07;;;;;;;;;;4985644;28;20296;-45
2024/03/01 02:46:08;;;;;;;229.87;68.00;;;;;;;;;;4992060;28;20408;-45
2024/03/01 02:48:34;;;;;;;230.27;64.60;;;;;;;;;;4990984;28;20416;-45
2024/03/01 02:51:00;;;;;;;227.50;64.50;;;;;;;;;;4988701;28;20424;-45
2024/03/01 02:53:26;;;;;;;231.70;67.50;;;;;;;;;;4994400;28;20482;-44
2024/03/01 02:55:52;;;;;;;230.37;66.00;;;;;;;;;;4984823;28;20407;-44
2024/03/01 02:58:17;;;;;;;230.50;66.70;;;;;;;;;;4988221;28;20446;-44
2024/03/01 03:00:43;;;;;;;232.27;67.93;;;;;;;;;;4986370;28;20416;-44
2024/03/01 03:03:09;;;;;;;232.50;68.20;;;;;;;;;;4994217;28;20468;-44
2024/03/01 03:05:35;;;;;;;227.60;63.87;;;;;;;;;;4978813;28;20413;-44
2024/03/01 03:08:05;;;;;;;231.83;66.47;;;;;;;;;;4993648;28;20511;-44
2024/03/01 03:10:31;;;;;;;231.18;67.30;;;;;;;;;;4994669;28;20423;-44
2024/03/01 03:13:00;;;;;;;228.17;63.30;;;;;;;;;;4994144;28;20213;-44
2024/03/01 03:15:26;;;;;;;231.55;67.10;;;;;;;;;;4994085;28;20903;-44
2024/03/01 03:17:52;;;;;;;229.30;65.90;;;;;;;;;;4994387;28;20180;-44
2024/03/01 03:20:18;;;;;;;229.07;64.57;;;;;;;;;;4994277;28;20412;-44
2024/03/01 03:22:45;;;;;;;227.95;66.68;;;;;;;;;;4993900;28;20530;-44
2024/03/01 03:25:13;;;;;;;235.13;70.97;;;;;;;;;;4985936;28;20180;-44
2024/03/01 03:27:39;;;;;;;229.18;66.43;;;;;;;;;;4980023;28;20542;-44
2024/03/01 03:30:06;;;;;;;227.68;64.78;;;;;;;;;;4978207;28;20195;-44
2024/03/01 03:32:33;;;;;;;230.52;67.95;;;;;;;;;;4986878;28;20210;-44
2024/03/01 03:34:59;;;;;;;230.30;66.95;;;;;;;;;;4992841;28;20187;-44
2024/03/01 03:37:25;;;;;;;230.37;65.70;;;;;;;;;;4979750;28;20222;-44
2024/03/01 03:39:51;;;;;;;230.48;67.10;;;;;;;;;;4990740;28;20404;-44
2024/03/01 03:42:17;;;;;;;230.13;67.93;;;;;;;;;;4987580;28;20262;-44
2024/03/01 03:44:43;;;;;;;230.50;69.17;;;;;;;;;;4993798;28;20350;-45
2024/03/01 03:47:09;;;;;;;229.03;64.47;;;;;;;;;;4993520;28;20907;-44
2024/03/01 03:49:38;;;;;;;231.60;68.27;;;;;;;;;;4985527;28;20816;-44
2024/03/01 03:52:04;;;;;;;231.10;66.80;;;;;;;;;;4985789;28;21017;-44
2024/03/01 03:54:31;;;;;;;231.27;66.38;;;;;;;;;;4987306;28;20184;-44
2024/03/01 03:56:57;;;;;;;230.23;65.95;;;;;;;;;;4991100;28;20165;-44
2024/03/01 03:59:23;;;;;;;231.60;67.37;;;;;;;;;;4993655;28;20564;-44
2024/03/01 04:01:49;;;;;;;228.98;63.40;;;;;;;;;;4993453;28;20731;-44
2024/03/01 04:04:15;;;;;;;230.83;66.43;;;;;;;;;;4993433;28;20180;-43
2024/03/01 04:06:41;;;;;;;231.98;67.32;;;;;;;;;;4993031;28;20419;-44
2024/03/01 04:09:10;;;;;;;229.50;65.07;;;;;;;;;;4993557;28;20181;-44
2024/03/01 04:11:36;;;;;;;228.73;64.80;;;;;;;;;;4985231;28;20210;-43
2024/03/01 04:14:02;;;;;;;228.85;66.45;;;;;;;;;;4985211;28;20173;-44
2024/03/01 04:16:29;;;;;;;227.25;62.65;;;;;;;;;;4992982;28;20188;-44
2024/03/01 04:18:56;;;;;;;229.32;63.78;;;;;;;;;;4992950;28;20176;-44
2024/03/01 04:21:22;;;;;;;230.32;64.70;;;;;;;;;;4993057;28;20199;-44
2024/03/01 04:23:48;;;;;;;226.90;63.00;;;;;;;;;;4984900;28;20589;-44
2024/03/01 04:26:15;;;;;;;225.93;61.27;;;;;;;;;;4981989;28;20423;-44
2024/03/01 04:28:41;;;;;;;229.30;65.72;;;;;;;;;;4989948;28;20470;-44
2024/03/01 04:31:07;;;;;;;230.02;64.60;;;;;;;;;;4992963;28;20179;-44
2024/03/01 04:33:40;;;;;;;228.68;62.75;;;;;;;;;;4984641;28;20208;-45
2024/03/01 04:36:06;;;;;;;225.90;60.92;;;;;;;;;;4992613;28;20199;-44
2024/03/01 04:38:32;;;;;;;226.50;62.88;;;;;;;;;;4984719;28;20176;-43
2024/03/01 04:40:58;;;;;;;228.87;63.87;;;;;;;;;;4982289;28;20181;-44
2024/03/01 04:43:24;;;;;;;229.60;63.72;;;;;;;;;;4979056;28;20450;-44
2024/03/01 04:45:50;;;;;;;229.35;61.65;;;;;;;;;;4992243;28;20267;-44
2024/03/01 04:48:17;;;;;;;224.90;59.60;;;;;;;;;;4992701;28;20188;-44
2024/03/01 04:50:43;;;;;;;226.40;60.83;;;;;;;;;;4992841;28;20180;-44
2024/03/01 04:53:09;;;;;;;226.90;61.90;;;;;;;;;;4992358;28;20721;-44
2024/03/01 04:55:35;;;;;;;226.65;62.08;;;;;;;;;;4992214;28;20899;-44
2024/03/01 04:58:01;;;;;;;226.23;60.43;;;;;;;;;;4992385;28;20391;-44
2024/03/01 05:00:27;;;;;;;228.70;62.73;;;;;;;;;;4992309;28;20416;-43
2024/03/01 05:02:54;;;;;;;228.03;61.93;;;;;;;;;;4984148;28;20482;-44
2024/03/01 05:05:22;;;;;;;229.35;64.65;;;;;;;;;;4986776;28;20758;-44
2024/03/01 05:07:49;;;;;;;227.55;62.05;;;;;;;;;;4989555;28;20272;-44
2024/03/01 05:10:21;;;;;;;225.55;60.15;;;;;;;;;;4992156;28;20664;-44
2024/03/01 05:12:47;;;;;;;228.55;63.35;;;;;;;;;;4983107;28;20565;-44
2024/03/01 05:15:15;;;;;;;234.88;69.55;;;;;;;;;;4979994;28;20217;-44
2024/03/01 05:17:41;;;;;;;227.70;63.13;;;;;;;;;;4992060;28;20537;-44
2024/03/01 05:20:10;;;;;;;226.85;62.35;;;;;;;;;;4984300;28;20259;-45
2024/03/01 05:22:38;;;;;;;230.05;64.35;;;;;;;;;;4991993;28;20215;-44
2024/03/01 05:25:14;;;;;;;229.25;63.47;;;;;;;;;;4980635;28;20177;-44
2024/03/01 05:27:44;;;;;;;227.80;62.80;;;;;;;;;;4972352;28;20227;-45
2024/03/01 05:30:11;;;;;;;229.70;64.03;;;;;;;;;;4969029;28;20198;-45
2024/03/01 05:32:38;;;;;;;229.60;64.25;;;;;;;;;;4992144;28;20211;-45
2024/03/01 05:35:07;;;;;;;238.52;70.50;;;;;;;;;;4991609;28;20216;-45
2024/03/01 05:37:33;;;;;;;227.55;63.05;;;;;;;;;;4991808;28;20193;-45
2024/03/01 05:40:01;;;;;;;229.40;63.90;;;;;;;;;;4991763;28;20608;-45
2024/03/01 05:42:27;;;;;;;228.68;62.30;;;;;;;;;;4991633;28;20509;-44
2024/03/01 05:44:53;;;;;;;230.33;63.93;;;;;;;;;;4991543;28;20266;-45
2024/03/01 05:47:19;;;;;;;226.10;59.70;;;;;;;;;;4990101;28;20517;-45
2024/03/01 05:49:46;;;;;;;228.77;61.70;;;;;;;;;;4991497;28;20223;-44
2024/03/01 05:52:12;;;;;;;230.93;64.25;;;;;;;;;;4991362;28;20214;-45
2024/03/01 05:54:37;;;;;;;229.30;64.33;;;;;;;;;;4991436;28;20547;-44
2024/03/01 05:57:03;;;;;;;228.67;63.20;;;;;;;;;;4991637;28;20411;-45
2024/03/01 05:59:29;;;;;;;229.25;63.40;;;;;;;;;;4991525;28;20439;-45
2024/03/01 06:01:56;;;;;;;227.23;63.10;;;;;;;;;;4991534;28;20204;-44
2024/03/01 06:04:22;;;;;;;228.70;63.38;;;;;;;;;;4991568;28;20412;-45
2024/03/01 06:06:48;;;;;;;229.87;64.93;;;;;;;;;;4991031;28;20250;-45
2024/03/01 06:09:14;;;;;;;228.03;62.80;;;;;;;;;;4991326;28;20502;-45
2024/03/01 06:11:40;;;;;;;229.70;63.60;;;;;;;;;;4991201;28;20548;-44
2024/03/01 06:14:06;;;;;;;229.30;63.13;;;;;;;;;;4991385;28;20214;-45
2024/03/01 06:16:32;;;;;;;231.27;65.33;;;;;;;;;;4991148;28;20407;-44
2024/03/01 06:18:59;;;;;;;229.57;63.60;;;;;;;;;;4991343;28;20409;-45
2024/03/01 06:21:25;;;;;;;230.10;63.35;;;;;;;;;;4994808;28;20282;-44
2024/03/01 06:23:52;;;;;;;233.30;67.80;;;;;;;;;;4995158;28;20176;-44
2024/03/01 06:26:17;;;;;;;228.43;62.42;;;;;;;;;;4992107;28;20184;-44
2024/03/01 06:28:43;;;;;;;231.77;64.97;;;;;;;;;;4992197;28;20180;-44
2024/03/01 06:31:10;;;;;;;234.15;66.82;;;;;;;;;;4994492;28;20810;-44
2024/03/01 06:33:35;;;;;;;230.20;63.67;;;;;;;;;;4994509;28;20589;-45
2024/03/01 06:36:02;;;;;;;230.77;64.33;;;;;;;;;;4994211;28;20172;-45
2024/03/01 06:38:28;;;;;;;231.25;66.82;;;;;;;;;;4994536;28;20826;-45
2024/03/01 06:40:54;;;;;;;230.03;62.00;;;;;;;;;;4994918;28;20259;-45
2024/03/01 06:43:20;;;;;;;227.23;62.07;;;;;;;;;;4994819;28;20435;-44
2024/03/01 06:45:45;;;;;;;231.73;65.20;;;;;;;;;;4994624;28;20461;-44
2024/03/01 06:48:12;;;;;;;229.53;61.27;;;;;;;;;;4994915;28;20545;-44
2024/03/01 06:50:38;;;;;;;230.60;64.55;;;;;;;;;;4995409;28;20423;-44
2024/03/01 06:53:04;;;;;;;231.17;66.07;;;;;;;;;;4992565;28;20255;-45
2024/03/01 06:55:30;;;;;;;236.25;68.47;;;;;;;;;;4976971;28;20759;-45
2024/03/01 06:57:57;;;;;;;228.93;62.27;;;;;;;;;;4993227;28;20183;-45
2024/03/01 07:00:23;;;;;;;228.32;62.55;;;;;;;;;;4982232;28;20849;-45
2024/03/01 07:02:49;;;;;;;234.33;66.90;;;;;;;;;;4983712;28;20208;-44
2024/03/01 07:05:15;;;;;;;235.57;69.60;;;;;;;;;;4993064;28;20819;-44
2024/03/01 07:07:41;;;;;;;235.80;68.40;;;;;;;;;;4983847;28;20411;-45
2024/03/01 07:10:07;;;;;;;232.50;64.93;;;;;;;;;;4989930;28;20176;-45
2024/03/01 07:12:34;;;;;;;232.93;65.97;;;;;;;;;;4988181;28;20474;-46
2024/03/01 07:15:00;;;;;;;233.18;64.90;;;;;;;;;;4985771;28;20189;-45
2024/03/01 07:17:26;;;;;;;232.93;63.55;;;;;;;;;;4992865;28;20188;-45
2024/03/01 07:19:53;;;;;;;232.37;62.27;;;;;;;;;;4985444;28;20181;-44
2024/03/01 07:22:19;;;;;;;228.73;60.83;;;;;;;;;;4991893;28;20439;-45
2024/03/01 07:24:44;;;;;;;229.37;61.20;;;;;;;;;;4989921;28;20180;-45
2024/03/01 07:27:10;;;;;;;230.30;61.30;;;;;;;;;;4987942;28;20420;-45
2024/03/01 07:29:36;;;;;;;227.20;58.07;;;;;;;;;;4986398;28;20423;-46
2024/03/01 07:32:02;;;;;;;227.18;58.97;;;;;;;;;;4991982;28;20771;-45
2024/03/01 07:34:28;;;;;;;227.73;59.30;;;;;;;;;;4991680;28;20189;-44
2024/03/01 07:36:54;;;;;;;231.77;61.53;;;;;;;;;;4988583;28;20184;-44
2024/03/01 07:39:20;;;;;;;229.50;60.30;;;;;;;;;;4990071;28;20422;-44
2024/03/01 07:41:46;;;;;;;227.05;58.05;;;;;;;;;;4989774;28;20923;-45
2024/03/01 07:44:12;;;;;;;228.10;62.53;;;;;;;;;;4986112;28;20259;-44
2024/03/01 07:46:41;;;;;;;229.77;60.17;;;;;;;;;;4991765;28;20272;-45
2024/03/01 07:49:07;;;;;;;230.45;60.80;;;;;;;;;;4973153;28;20483;-45
2024/03/01 07:51:33;;;;;;;228.97;58.10;;;;;;;;;;4989181;28;20283;-45
2024/03/01 07:53:59;;;;;;;231.23;60.78;;;;;;;;;;4986939;28;20937;-45
2024/03/01 07:56:25;;;;;;;226.67;58.97;;;;;;;;;;4986030;28;20340;-46
2024/03/01 07:59:02;;;;;;;231.00;61.45;;;;;;;;;;4990275;28;20442;-46
2024/03/01 08:01:29;;;;;;;226.48;58.60;;;;;;;;;;4991995;28;20178;-45
2024/03/01 08:03:55;;;;;;;231.05;60.72;;;;;;;;;;4990425;28;20204;-45
2024/03/01 08:06:22;;;;;;;228.90;61.70;;;;;;;;;;4988982;28;20617;-45
2024/03/01 08:08:51;;;;;;;231.77;64.45;;;;;;;;;;4986701;28;20419;-44
2024/03/01 08:11:40;;;;;;;229.13;61.15;;;;;;;;;;4985984;28;20595;-45
2024/03/01 08:14:07;;;;;;;228.20;61.45;;;;;;;;;;4977023;28;20264;-45
2024/03/01 08:16:33;;;;;;;231.60;62.78;;;;;;;;;;4990010;28;21026;-44
2024/03/01 08:18:59;;;;;;;229.27;61.65;;;;;;;;;;4988217;28;20189;-45
2024/03/01 08:21:26;;;;;;;228.43;61.90;;;;;;;;;;4988807;28;20234;-44
2024/03/01 08:23:52;;;;;;;228.18;60.67;;;;;;;;;;4989836;28;20454;-46
2024/03/01 08:26:25;;;;;;;226.40;59.20;;;;;;;;;;4982449;28;20176;-44
2024/03/01 08:28:52;;;;;;;232.07;64.60;;;;;;;;;;4989255;28;20177;-46
2024/03/01 08:31:33;;;;;;;231.55;61.50;;;;;;;;;;4990235;28;20842;-44
2024/03/01 08:34:17;;;;;;;225.48;58.45;;;;;;;;;;4987978;28;20485;-44
2024/03/01 08:36:44;;;;;;;229.68;62.20;;;;;;;;;;4986023;28;20585;-44
2024/03/01 08:39:10;;;;;;;227.88;60.80;;;;;;;;;;4985149;28;20250;-45
2024/03/01 08:41:37;;;;;;;230.20;61.73;;;;;;;;;;4991298;28;20664;-45
2024/03/01 08:44:06;;;;;;;230.68;62.42;;;;;;;;;;4975955;28;20432;-45
2024/03/01 08:46:33;;;;;;;225.55;58.55;;;;;;;;;;4983000;28;20173;-44
2024/03/01 08:49:22;;;;;;;229.43;61.33;;;;;;;;;;4985657;28;20709;-45
2024/03/01 08:51:48;;;;;;;227.93;60.22;;;;;;;;;;4987239;28;20231;-45
2024/03/01 08:54:15;;;;;;;228.33;58.70;;;;;;;;;;4993191;28;20184;-44
2024/03/01 08:56:42;;;;;;;230.27;60.53;;;;;;;;;;4991834;28;20412;-45
2024/03/01 08:59:31;;;;;;;228.82;61.50;;;;;;;;;;4992179;28;20195;-45
2024/03/01 09:01:57;;;;;;;227.25;59.45;;;;;;;;;;4981318;28;20603;-44
2024/03/01 09:04:31;;;;;;;226.90;58.40;;;;;;;;;;4984312;28;20180;-44
2024/03/01 09:07:07;;;;;;;226.60;57.63;;;;;;;;;;4989674;28;20465;-44
2024/03/01 09:09:34;;;;;;;227.38;59.30;;;;;;;;;;4988013;28;20168;-44
2024/03/01 09:11:59;;;;;;;226.10;57.65;;;;;;;;;;4984077;28;20347;-44
2024/03/01 09:14:33;;;;;;;226.27;58.17;;;;;;;;;;4992265;28;20599;-44
2024/03/01 09:17:01;;;;;;;229.95;60.55;;;;;;;;;;4989198;28;20408;-44
2024/03/01 09:19:30;;;;;;;230.43;61.67;;;;;;;;;;4986860;28;20177;-44
2024/03/01 09:21:56;;;;;;;229.57;62.28;;;;;;;;;;4991945;28;20208;-44
2024/03/01 09:24:23;;;;;;;233.13;64.68;;;;;;;;;;4991936;28;20203;-45
2024/03/01 09:26:49;;;;;;;228.63;59.88;;;;;;;;;;4991520;28;20189;-44
2024/03/01 09:29:23;;;;;;;227.82;57.75;;;;;;;;;;4991820;28;20185;-44
2024/03/01 09:31:49;;;;;;;230.20;59.55;;;;;;;;;;4991935;28;20471;-44
2024/03/01 09:34:17;;;;;;;229.90;59.83;;;;;;;;;;4991913;28;20416;-44
2024/03/01 09:36:43;;;;;;;231.35;63.72;;;;;;;;;;4991106;28;20711;-44
2024/03/01 09:39:11;;;;;;;231.30;61.90;;;;;;;;;;4985063;28;20177;-44
2024/03/01 09:41:56;;;;;;;232.27;62.53;;;;;;;;;;4991630;28;20173;-44
2024/03/01 09:44:26;;;;;;;231.50;63.20;;;;;;;;;;4991745;28;20179;-45
2024/03/01 09:47:11;;;;;;;233.65;65.63;;;;;;;;;;4991236;28;20652;-44
2024/03/01 09:49:37;;;;;;;232.98;63.70;;;;;;;;;;4983867;28;20424;-44
2024/03/01 09:52:16;;;;;;;232.63;64.67;;;;;;;;;;4988483;28;20214;-44
2024/03/01 09:54:59;;;;;;;234.75;67.32;;;;;;;;;;4987594;28;20411;-44
2024/03/01 09:57:30;;;;;;;232.63;65.78;;;;;;;;;;4991098;28;20188;-44
2024/03/01 10:00:06;;;;;;;234.43;65.30;;;;;;;;;;4991457;28;20644;-44
2024/03/01 10:02:36;;;;;;;235.27;66.78;;;;;;;;;;4991352;28;20196;-44
2024/03/01 10:05:04;;;;;;;239.57;70.95;;;;;;;;;;4991126;28;20199;-44
2024/03/01 10:07:30;;;;;;;242.40;71.88;;;;;;;;;;4991244;28;20549;-44
2024/03/01 10:10:15;;;;;;;243.33;73.67;;;;;;;;;;4989130;28;20181;-44
2024/03/01 10:12:47;;;;;;;245.38;77.75;;;;;;;;;;4979826;28;20465;-45
2024/03/01 10:15:32;;;;;;;251.18;83.55;;;;;;;;;;4991246;28;20256;-45
2024/03/01 10:18:05;;;;;;;247.25;80.88;;;;;;;;;;4988883;28;20228;-45
2024/03/01 10:20:37;;;;;;;248.68;80.45;;;;;;;;;;4986551;28;20172;-45
2024/03/01 10:23:22;;;;;;;249.50;82.72;;;;;;;;;;4991289;28;20212;-44
2024/03/01 10:25:56;;;;;;;249.85;81.90;;;;;;;;;;4982903;28;20559;-45
2024/03/01 10:28:30;;;;;;;247.65;79.95;;;;;;;;;;4991182;28;20179;-45
2024/03/01 10:31:02;;;;;;;250.20;85.22;;;;;;;;;;4991085;28;20211;-45
2024/03/01 10:33:31;;;;;;;248.43;80.60;;;;;;;;;;4990976;28;20212;-45
2024/03/01 10:36:08;;;;;;;245.70;78.30;;;;;;;;;;4990918;28;20247;-45
2024/03/01 10:38:42;;;;;;;249.10;83.72;;;;;;;;;;4976056;28;20181;-45
2024/03/01 10:41:12;;;;;;;244.95;80.13;;;;;;;;;;4975779;28;20165;-44
2024/03/01 10:43:56;;;;;;;245.40;78.80;;;;;;;;;;4982992;28;20194;-44
2024/03/01 10:46:26;;;;;;;240.93;74.05;;;;;;;;;;4979272;28;20200;-45
2024/03/01 10:48:55;;;;;;;244.63;79.13;;;;;;;;;;4983046;28;20210;-45
2024/03/01 10:51:22;;;;;;;243.93;79.70;;;;;;;;;;4990998;28;20306;-45
2024/03/01 10:53:55;;;;;;;244.23;76.55;;;;;;;;;;4990668;28;20216;-45
2024/03/01 10:56:22;;;;;;;242.07;73.43;;;;;;;;;;4982559;28;20176;-44
2024/03/01 10:59:00;;;;;;;245.57;78.65;;;;;;;;;;4983578;28;20176;-45
2024/03/01 11:01:26;;;;;;;248.52;82.75;;;;;;;;;;4985817;28;20177;-44
2024/03/01 11:04:05;;;;;;;247.83;81.50;;;;;;;;;;4990839;28;20200;-44
2024/03/01 11:06:31;;;;;;;240.25;75.25;;;;;;;;;;4991869;28;20494;-45
2024/03/01 11:09:06;;;;;;;245.07;78.47;;;;;;;;;;4986467;28;20601;-44
2024/03/01 11:11:49;;;;;;;242.93;77.07;;;;;;;;;;4994169;28;20551;-45
2024/03/01 11:14:17;;;;;;;247.05;82.68;;;;;;;;;;4981811;28;20173;-44
2024/03/01 11:16:45;;;;;;;246.02;77.95;;;;;;;;;;4990837;28;20172;-45
2024/03/01 11:19:13;;;;;;;245.38;80.80;;;;;;;;;;4990339;28;20181;-45
2024/03/01 11:21:42;;;;;;;247.13;82.25;;;;;;;;;;4982992;28;20427;-44
2024/03/01 11:24:17;;;;;;;247.95;85.15;;;;;;;;;;4994211;28;20183;-45
2024/03/01 11:26:43;;;;;;;243.25;78.53;;;;;;;;;;4985717;28;20180;-45
2024/03/01 11:29:30;;;;;;;243.45;78.75;;;;;;;;;;4993975;28;20570;-45
2024/03/01 11:32:04;;;;;;;251.20;84.60;;;;;;;;;;4981911;28;20233;-45
2024/03/01 11:34:36;;;;;;;255.80;86.28;;;;;;;;;;4987389;28;20305;-46
2024/03/01 11:37:14;;;;;;;256.03;88.03;;;;;;;;;;4984844;28;20174;-45
2024/03/01 11:39:55;;;;;;;259.90;94.47;;;;;;;;;;4984901;28;20402;-44
2024/03/01 11:42:34;;;;;;;252.25;87.50;;;;;;;;;;4993734;28;20472;-45
2024/03/01 11:45:03;;;;;;;255.40;88.47;;;;;;;;;;4993818;28;20232;-45
2024/03/01 11:47:41;;;;;;;268.43;99.73;;;;;;;;;;4981963;28;20469;-45
2024/03/01 11:50:30;;;;;;;262.40;95.10;;;;;;;;;;4972632;28;20410;-45
2024/03/01 11:52:58;;;;;;;262.63;92.17;;;;;;;;;;4981830;28;20472;-45
2024/03/01 11:55:42;;;;;;;260.07;98.23;;;;;;;;;;4985122;28;20511;-45
2024/03/01 11:58:20;;;;;;;255.35;94.10;;;;;;;;;;4976126;28;20461;-45
2024/03/01 12:01:04;;;;;;;260.17;97.87;;;;;;;;;;4975503;28;20215;-45
2024/03/01 12:03:30;;;;;;;259.57;100.17;;;;;;;;;;4977307;28;20494;-44
2024/03/01 12:06:02;;;;;;;259.92;100.55;;;;;;;;;;4978997;28;20435;-44
2024/03/01 12:08:49;;;;;;;254.98;91.88;;;;;;;;;;4977255;28;20179;-45
2024/03/01 12:11:33;;;;;;;254.27;89.87;;;;;;;;;;4971596;28;20175;-45
2024/03/01 12:14:01;;;;;;;273.03;108.60;;;;;;;;;;4980103;28;20415;-45
2024/03/01 12:16:35;;;;;;;256.00;88.13;;;;;;;;;;4984348;28;20405;-45
2024/03/01 12:19:10;;;;;;;253.97;89.80;;;;;;;;;;4976319;28;20531;-45
2024/03/01 12:21:55;;;;;;;258.27;89.17;;;;;;;;;;4974725;28;20415;-47
2024/03/01 12:24:22;;;;;;;252.97;86.83;;;;;;;;;;4980857;28;20928;-45
2024/03/01 12:27:08;;;;;;;254.90;88.32;;;;;;;;;;4981064;28;20475;-45
2024/03/01 12:29:34;;;;;;;262.57;96.27;;;;;;;;;;4973083;28;20423;-45
2024/03/01 12:32:19;;;;;;;262.83;100.23;;;;;;;;;;4980146;28;20465;-46
2024/03/01 12:35:05;;;;;;;263.37;106.70;;;;;;;;;;4977704;28;20789;-45
2024/03/01 12:37:44;;;;;;;260.13;102.10;;;;;;;;;;4988212;28;20969;-45
2024/03/01 12:40:18;;;;;;;254.63;94.43;;;;;;;;;;4978832;28;21200;-45
2024/03/01 12:42:59;;;;;;;257.60;102.20;;;;;;;;;;4981725;28;20428;-46
2024/03/01 12:45:44;;;;;;;253.50;92.50;;;;;;;;;;4978989;28;20446;-45
2024/03/01 12:48:18;;;;;;;256.03;97.20;;;;;;;;;;4992530;28;20417;-45
2024/03/01 12:51:09;;;;;;;253.10;95.30;;;;;;;;;;4980341;28;20428;-45
2024/03/01 12:53:47;;;;;;;259.70;105.10;;;;;;;;;;4984692;28;21019;-44
2024/03/01 12:56:20;;;;;;;252.57;89.53;;;;;;;;;;4978289;28;20400;-45
2024/03/01 12:58:55;;;;;;;256.53;93.20;;;;;;;;;;4983814;28;20419;-45
2024/03/01 13:01:30;;;;;;;256.37;94.00;;;;;;;;;;4979119;28;20905;-45
2024/03/01 13:04:21;;;;;;;262.03;95.73;;;;;;;;;;4974215;28;20414;-45
2024/03/01 13:06:49;;;;;;;251.43;88.73;;;;;;;;;;4979410;28;20435;-45
2024/03/01 13:09:19;;;;;;;257.17;93.80;;;;;;;;;;4987483;28;20791;-45
2024/03/01 13:11:47;;;;;;;255.27;88.85;;;;;;;;;;4981218;28;20193;-45
2024/03/01 13:14:27;;;;;;;252.98;87.05;;;;;;;;;;4984310;28;20600;-45
2024/03/01 13:16:56;;;;;;;251.37;85.27;;;;;;;;;;4981610;28;20198;-45
2024/03/01 13:19:26;;;;;;;256.43;88.80;;;;;;;;;;4982151;28;20412;-45
2024/03/01 13:22:03;;;;;;;257.20;90.72;;;;;;;;;;4977319;28;20952;-45
2024/03/01 13:24:37;;;;;;;262.77;100.77;;;;;;;;;;4977656;28;20579;-45
2024/03/01 13:27:07;;;;;;;258.17;94.27;;;;;;;;;;4991491;28;20472;-45
2024/03/01 13:29:34;;;;;;;254.93;91.03;;;;;;;;;;4984037;28;20437;-45
2024/03/01 13:32:18;;;;;;;255.43;92.97;;;;;;;;;;4983840;28;20471;-45
2024/03/01 13:34:50;;;;;;;253.60;92.10;;;;;;;;;;4983405;28;20426;-45
2024/03/01 13:37:35;;;;;;;255.82;94.07;;;;;;;;;;4991670;28;20501;-45
2024/03/01 13:40:14;;;;;;;250.93;87.87;;;;;;;;;;4991393;28;20513;-45
2024/03/01 13:42:41;;;;;;;257.67;98.80;;;;;;;;;;4985546;28;20919;-45
2024/03/01 13:45:14;;;;;;;256.98;95.57;;;;;;;;;;4974503;28;20418;-44
2024/03/01 13:47:59;;;;;;;250.63;90.00;;;;;;;;;;4982350;28;20261;-44
2024/03/01 13:50:32;;;;;;;253.10;90.22;;;;;;;;;;4974661;28;20228;-45
2024/03/01 13:52:58;;;;;;;250.67;87.73;;;;;;;;;;4981927;28;20210;-45
2024/03/01 13:55:26;;;;;;;252.18;91.13;;;;;;;;;;4991415;28;20420;-45
2024/03/01 13:57:52;;;;;;;251.23;91.70;;;;;;;;;;4983350;28;20179;-45
2024/03/01 14:00:24;;;;;;;260.13;97.40;;;;;;;;;;4985469;28;20419;-45
2024/03/01 14:02:50;;;;;;;251.53;89.03;;;;;;;;;;4978223;28;20228;-45
2024/03/01 14:05:16;;;;;;;255.30;95.10;;;;;;;;;;4983128;28;20494;-45
2024/03/01 14:07:49;;;;;;;252.07;90.63;;;;;;;;;;4988423;28;20467;-45
2024/03/01 14:10:17;;;;;;;253.15;90.82;;;;;;;;;;4989741;28;20884;-45
2024/03/01 14:12:44;;;;;;;265.43;100.30;;;;;;;;;;4989216;28;20231;-45
2024/03/01 14:15:15;;;;;;;257.95;96.40;;;;;;;;;;4982291;28;20944;-45